createdAt,value
2022-08-26T00:07:37.934Z,9.40
2022-08-26T00:18:22.073Z,9.00
2022-08-26T00:28:51.584Z,6.50
2022-08-26T00:39:22.762Z,9.20
2022-08-26T00:49:53.113Z,8.60
2022-08-26T01:00:26.066Z,9.80
2022-08-26T01:10:55.771Z,8.80
2022-08-26T01:21:31.119Z,7.10
2022-08-26T01:32:00.893Z,9.10
2022-08-26T01:42:30.150Z,9.10
2022-08-26T01:53:02.685Z,8.60
2022-08-26T02:03:32.367Z,8.50
2022-08-26T02:14:06.028Z,7.10
2022-08-26T02:24:50.853Z,8.50
2022-08-26T02:35:23.005Z,7.20
2022-08-26T02:45:52.077Z,7.90
2022-08-26T02:56:21.339Z,8.20
2022-08-26T03:06:52.984Z,6.70
2022-08-26T03:17:22.013Z,6.90
2022-08-26T03:27:51.092Z,9.10
2022-08-26T03:38:20.825Z,9.30
2022-08-26T03:48:49.905Z,7.80
2022-08-26T03:59:18.891Z,5.50
2022-08-26T04:09:48.003Z,8.20
2022-08-26T04:20:18.646Z,8.10
2022-08-26T04:30:47.663Z,9.00
2022-08-26T04:41:16.847Z,8.50
2022-08-26T04:51:46.322Z,10.90
2022-08-26T05:02:16.125Z,9.70
2022-08-26T05:12:44.924Z,10.30
2022-08-26T05:23:14.099Z,10.80
2022-08-26T05:33:43.747Z,10.20
2022-08-26T05:44:15.220Z,9.80
2022-08-26T05:54:45.271Z,9.40
2022-08-26T06:05:16.576Z,9.20
2022-08-26T06:15:48.340Z,8.90
2022-08-26T06:26:18.418Z,9.20
2022-08-26T06:36:47.653Z,7.70
2022-08-26T06:47:16.528Z,8.20
2022-08-26T06:57:45.436Z,7.80
2022-08-26T07:08:15.047Z,6.50
2022-08-26T07:18:45.431Z,6.10
2022-08-26T07:29:17.220Z,7.10
2022-08-26T07:39:46.534Z,5.90
2022-08-26T07:50:15.865Z,6.20
2022-08-26T08:00:45.191Z,7.10
2022-08-26T08:11:14.491Z,6.20
2022-08-26T08:21:43.571Z,6.60
2022-08-26T08:32:15.463Z,5.90
2022-08-26T08:53:23.057Z,6.90
2022-08-26T09:03:59.589Z,5.90
2022-08-26T09:14:30.879Z,5.90
2022-08-26T09:25:00.502Z,6.40
2022-08-26T09:35:33.654Z,6.70
2022-08-26T09:46:19.464Z,6.20
2022-08-26T09:56:48.696Z,5.80
2022-08-26T10:07:34.196Z,5.30
2022-08-26T10:18:11.403Z,5.00
2022-08-26T10:28:45.450Z,5.10
2022-08-26T10:39:21.504Z,4.30
2022-08-26T10:49:58.718Z,5.20
2022-08-26T11:00:55.860Z,5.60
2022-08-26T11:11:49.767Z,5.50
2022-08-26T11:22:29.770Z,4.50
2022-08-26T11:33:00.498Z,4.80
2022-08-26T11:43:30.631Z,4.80
2022-08-26T11:54:15.822Z,4.60
2022-08-26T12:15:20.131Z,3.90
2022-08-26T12:25:50.983Z,4.20
2022-08-26T12:36:24.714Z,4.10
2022-08-26T12:46:53.794Z,4.90
2022-08-26T12:57:29.787Z,4.40
2022-08-26T13:08:17.119Z,4.90
2022-08-26T13:18:46.251Z,4.70
2022-08-26T13:29:15.555Z,5.40
2022-08-26T13:39:44.528Z,5.30
2022-08-26T13:50:13.830Z,5.20
2022-08-26T14:00:43.339Z,5.10
2022-08-26T14:11:12.443Z,4.50
2022-08-26T14:21:42.136Z,4.40
2022-08-26T14:32:15.481Z,4.70
2022-08-26T14:42:49.187Z,4.30
2022-08-26T14:53:39.096Z,3.80
2022-08-26T15:04:08.476Z,4.20
2022-08-26T15:14:37.546Z,4.40
2022-08-26T15:25:08.150Z,3.80
2022-08-26T15:35:40.267Z,2.80
2022-08-26T15:46:15.390Z,3.40
2022-08-26T15:56:47.978Z,4.70
2022-08-26T16:07:17.019Z,3.70
2022-08-26T16:17:46.107Z,3.70
2022-08-26T16:28:15.940Z,3.80
2022-08-26T16:38:56.738Z,3.30
2022-08-26T16:49:25.871Z,4.70
2022-08-26T16:59:54.803Z,3.30
2022-08-26T17:10:24.904Z,3.70
2022-08-26T17:20:54.955Z,4.10
2022-08-26T17:31:24.912Z,3.70
2022-08-26T17:41:54.017Z,4.10
2022-08-26T17:52:23.026Z,4.10
2022-08-26T18:02:52.072Z,5.00
2022-08-26T18:13:21.762Z,3.80
2022-08-26T18:23:51.600Z,5.00
2022-08-26T18:34:21.334Z,5.60
2022-08-26T18:44:53.225Z,4.70
2022-08-26T18:55:22.587Z,4.70
2022-08-26T19:05:54.452Z,6.10
2022-08-26T19:16:28.223Z,5.70
2022-08-26T19:26:59.415Z,6.20
2022-08-26T19:37:28.920Z,5.90
2022-08-26T19:47:59.193Z,6.50
2022-08-26T19:58:28.388Z,6.80
2022-08-26T20:08:57.979Z,6.80
2022-08-26T20:19:45.240Z,6.80
2022-08-26T20:30:16.203Z,7.30
2022-08-26T20:40:45.941Z,7.00
2022-08-26T20:51:15.125Z,7.20
2022-08-26T21:01:45.467Z,7.40
2022-08-26T21:12:14.517Z,7.80
2022-08-26T21:22:43.612Z,8.20
2022-08-26T21:33:12.621Z,8.00
2022-08-26T21:43:42.619Z,6.90
2022-08-26T21:54:13.099Z,8.20
2022-08-26T22:04:44.595Z,7.30
2022-08-26T22:15:20.110Z,7.90
2022-08-26T22:25:49.791Z,7.20
2022-08-26T22:36:24.762Z,7.10
2022-08-26T22:46:55.898Z,8.80
2022-08-26T22:57:24.880Z,8.70
2022-08-26T23:07:54.371Z,9.20
2022-08-26T23:18:23.431Z,9.10
2022-08-26T23:28:53.705Z,7.60
2022-08-26T23:39:23.093Z,7.70
2022-08-26T23:49:52.055Z,7.20
